Time;durP1;ratioP1;P1;durP2;ratioP2;P2;SDS_P1;SDS_P2;PMS_P1;PMS_P2;Temp;Humidity;BMP_temperature;BMP_pressure;BME280_temperature;BME280_humidity;BME280_pressure;Samples;Min_cycle;Max_cycle;Signal;HPM_P1;HPM_P2
2023/04/22 00:02:01;;;;;;;;;24.25;19.75;;;;;16.26;71.45;99376.66;5075307;28;45739;-75
2023/04/22 00:04:28;;;;;;;;;18.75;17.75;;;;;16.20;70.36;99379.38;5057016;28;45494;-71
2023/04/22 00:06:54;;;;;;;;;19.50;19.50;;;;;16.16;71.79;99377.66;5057970;28;45524;-73
2023/04/22 00:09:20;;;;;;;;;20.75;19.00;;;;;16.08;71.46;99367.19;5056492;28;45685;-75
2023/04/22 00:11:45;;;;;;;;;25.00;21.50;;;;;16.07;71.93;99389.16;5075511;28;45454;-75
2023/04/22 00:14:11;;;;;;;;;23.75;21.25;;;;;16.04;72.05;99389.19;5075975;28;45298;-75
2023/04/22 00:16:37;;;;;;;;;23.50;20.50;;;;;16.06;71.72;99372.47;5076314;28;45285;-75
2023/04/22 00:19:04;;;;;;;;;20.50;19.00;;;;;16.14;71.36;99385.56;5078220;27;45346;-72
2023/04/22 00:21:31;;;;;;;;;23.25;20.50;;;;;16.13;71.17;99381.19;5079431;28;45478;-74
2023/04/22 00:23:57;;;;;;;;;22.25;20.00;;;;;16.10;71.39;99387.38;5079428;28;45327;-72
2023/04/22 00:26:22;;;;;;;;;23.50;21.00;;;;;16.02;72.77;99394.47;5079630;28;46626;-75
2023/04/22 00:28:48;;;;;;;;;19.75;17.50;;;;;15.94;73.03;99387.56;5078591;28;45556;-75
2023/04/22 00:31:13;;;;;;;;;21.25;19.00;;;;;15.92;72.59;99374.41;5078446;28;45396;-72
2023/04/22 00:33:39;;;;;;;;;21.00;20.00;;;;;16.03;72.28;99374.28;5079371;28;45425;-71
2023/04/22 00:36:05;;;;;;;;;18.50;17.50;;;;;16.06;72.25;99368.97;5079261;28;45307;-72
2023/04/22 00:38:30;;;;;;;;;20.00;16.50;;;;;16.01;72.14;99366.38;5078559;28;45498;-71
2023/04/22 00:40:56;;;;;;;;;21.00;19.25;;;;;16.06;71.51;99359.31;5078674;28;45594;-71
2023/04/22 00:43:22;;;;;;;;;22.75;20.50;;;;;16.18;71.54;99365.34;5078103;28;45410;-69
2023/04/22 00:45:49;;;;;;;;;16.50;16.50;;;;;16.17;71.54;99355.66;5063417;28;45593;-71
2023/04/22 00:48:14;;;;;;;;;17.00;16.00;;;;;16.20;71.47;99353.03;5078514;28;45663;-71
2023/04/22 00:50:40;;;;;;;;;19.50;19.50;;;;;16.20;71.01;99353.03;5072030;28;45626;-73
2023/04/22 00:53:06;;;;;;;;;19.75;18.00;;;;;16.22;70.43;99341.56;5063789;28;45352;-75
2023/04/22 00:55:31;;;;;;;;;19.75;18.00;;;;;16.13;71.71;99332.88;5078790;28;45398;-71
2023/04/22 00:58:00;;;;;;;;;18.00;18.00;;;;;16.18;71.89;99341.63;5048203;28;45475;-75
2023/04/22 01:00:26;;;;;;;;;19.00;17.50;;;;;16.15;70.70;99336.38;5067237;28;45232;-74
2023/04/22 01:02:53;;;;;;;;;16.50;14.50;;;;;16.17;71.71;99353.03;5078874;28;45604;-75
2023/04/22 01:05:19;;;;;;;;;20.00;18.25;;;;;16.17;72.15;99353.03;5078772;28;45479;-75
2023/04/22 01:07:45;;;;;;;;;22.25;19.00;;;;;16.15;72.32;99354.81;5078369;28;45244;-72
2023/04/22 01:10:11;;;;;;;;;18.00;18.00;;;;;16.10;72.72;99358.38;5077383;28;45339;-74
2023/04/22 01:12:36;;;;;;;;;18.25;17.25;;;;;16.04;72.14;99350.56;5077937;28;45346;-75
2023/04/22 01:15:02;;;;;;;;;16.25;15.75;;;;;16.16;70.73;99362.72;5078247;28;45550;-70
2023/04/22 01:17:30;;;;;;;;;19.25;18.00;;;;;16.15;71.13;99365.34;5060199;28;45511;-75
2023/04/22 01:19:57;;;;;;;;;20.25;18.75;;;;;16.05;70.92;99359.31;5077745;28;45573;-71
2023/04/22 01:22:32;;;;;;;;;18.50;17.00;;;;;16.06;71.49;99361.94;5062740;28;45439;-75
2023/04/22 01:24:58;;;;;;;;;20.00;17.25;;;;;15.98;71.89;99353.25;5078677;28;45485;-75
2023/04/22 01:27:24;;;;;;;;;16.75;16.25;;;;;16.03;71.09;99361.97;5077936;28;45520;-74
2023/04/22 01:29:51;;;;;;;;;21.00;17.00;;;;;16.03;70.46;99351.44;5061468;28;45210;-75
2023/04/22 01:32:17;;;;;;;;;15.00;15.00;;;;;16.05;71.01;99348.78;5078417;28;45363;-70
2023/04/22 01:34:42;;;;;;;;;13.75;12.50;;;;;15.98;70.93;99342.72;5077588;28;45540;-75
2023/04/22 01:37:08;;;;;;;;;20.50;19.00;;;;;15.98;70.94;99348.00;5059860;28;45478;-75
2023/04/22 01:39:34;;;;;;;;;16.25;15.75;;;;;15.96;70.68;99352.41;5077393;28;45805;-75
2023/04/22 01:42:02;;;;;;;;;15.50;15.00;;;;;15.98;70.62;99362.94;5060276;28;45440;-71
2023/04/22 01:44:27;;;;;;;;;15.50;15.50;;;;;15.93;70.73;99364.72;5078357;28;45530;-75
2023/04/22 01:46:53;;;;;;;;;15.25;14.75;;;;;15.84;71.12;99355.19;5077836;28;46097;-75
2023/04/22 01:49:19;;;;;;;;;17.00;16.00;;;;;15.84;70.71;99353.41;5077143;28;45342;-75
2023/04/22 01:51:44;;;;;;;;;14.75;13.50;;;;;15.84;70.20;99353.41;5073379;28;45469;-74
2023/04/22 01:54:10;;;;;;;;;18.00;15.75;;;;;15.79;69.52;99346.44;5066376;28;45569;-75
2023/04/22 01:56:37;;;;;;;;;15.00;12.75;;;;;15.82;69.29;99356.97;5076245;28;45339;-74
2023/04/22 01:59:03;;;;;;;;;14.00;13.50;;;;;15.80;69.29;99364.00;5061359;28;45422;-74
2023/04/22 02:01:29;;;;;;;;;15.00;14.00;;;;;15.78;69.57;99361.38;5075625;28;45401;-72
2023/04/22 02:03:54;;;;;;;;;13.00;13.00;;;;;15.74;68.91;99364.03;5075811;28;45699;-71
2023/04/22 02:06:20;;;;;;;;;14.00;12.00;;;;;15.71;68.78;99365.78;5076838;28;45658;-76
2023/04/22 02:08:45;;;;;;;;;18.00;16.75;;;;;15.70;68.88;99371.94;5076953;28;45404;-75
2023/04/22 02:11:11;;;;;;;;;12.25;12.00;;;;;15.67;68.90;99382.50;5055933;28;45465;-75
2023/04/22 02:13:40;;;;;;;;;15.50;14.00;;;;;15.61;69.52;99390.44;5065438;28;45451;-75
2023/04/22 02:16:06;;;;;;;;;16.25;14.25;;;;;15.56;69.68;99392.28;5077415;28;46171;-71
2023/04/22 02:18:32;;;;;;;;;15.00;13.75;;;;;15.51;70.23;99399.31;5076993;28;45487;-75
2023/04/22 02:20:58;;;;;;;;;15.00;14.00;;;;;15.52;70.24;99407.22;5077535;28;45296;-72
2023/04/22 02:23:24;;;;;;;;;16.00;15.00;;;;;15.58;70.69;99419.44;5077559;28;45216;-75
2023/04/22 02:25:50;;;;;;;;;15.75;13.75;;;;;15.60;70.59;99422.94;5076976;28;46139;-74
2023/04/22 02:28:17;;;;;;;;;17.00;15.75;;;;;15.61;70.41;99424.66;5076725;28;45393;-70
2023/04/22 02:30:42;;;;;;;;;15.75;14.75;;;;;15.62;70.64;99423.81;5073674;28;45512;-75
2023/04/22 02:33:08;;;;;;;;;15.50;14.50;;;;;15.65;70.31;99429.03;5077025;28;45533;-71
2023/04/22 02:35:33;;;;;;;;;14.50;13.00;;;;;15.68;70.36;99434.28;5077849;28;46229;-70
2023/04/22 02:38:00;;;;;;;;;13.50;13.50;;;;;15.75;70.01;99442.16;5077367;28;45301;-70
2023/04/22 02:40:26;;;;;;;;;15.25;13.50;;;;;15.70;69.80;99437.75;5076488;28;45567;-70
2023/04/22 02:42:51;;;;;;;;;15.75;14.00;;;;;15.75;70.06;99460.59;5072679;28;45573;-71
2023/04/22 02:45:17;;;;;;;;;15.00;14.75;;;;;15.71;70.23;99463.19;5065273;28;45457;-70
2023/04/22 02:47:42;;;;;;;;;15.50;15.00;;;;;15.77;71.02;99469.34;5076898;28;45408;-70
2023/04/22 02:50:08;;;;;;;;;17.00;15.75;;;;;15.70;71.79;99482.53;5076394;28;45555;-74
2023/04/22 02:52:34;;;;;;;;;19.00;16.00;;;;;15.74;71.77;99501.84;5076766;28;45632;-71
2023/04/22 02:55:00;;;;;;;;;14.50;13.75;;;;;15.71;71.04;99484.25;5076296;28;46130;-75
2023/04/22 02:57:25;;;;;;;;;17.75;15.25;;;;;15.61;71.16;99445.72;5077106;28;45524;-74
2023/04/22 02:59:52;;;;;;;;;19.00;16.50;;;;;15.58;72.05;99468.56;5076292;28;45442;-75
2023/04/22 03:02:17;;;;;;;;;19.75;16.75;;;;;15.45;72.17;99468.66;5076513;27;45349;-75
2023/04/22 03:04:43;;;;;;;;;18.00;16.50;;;;;15.53;71.56;99468.63;5076774;28;45507;-76
2023/04/22 03:07:09;;;;;;;;;15.75;13.00;;;;;15.44;70.17;99468.69;5077194;28;46194;-75
2023/04/22 03:09:34;;;;;;;;;16.75;15.50;;;;;15.47;69.24;99473.94;5076893;28;45331;-71
2023/04/22 03:12:01;;;;;;;;;12.75;10.00;;;;;15.37;69.22;99472.25;5077061;28;45469;-75
2023/04/22 03:14:26;;;;;;;;;14.50;13.50;;;;;15.41;69.09;99480.09;5076796;28;45967;-76
2023/04/22 03:16:52;;;;;;;;;16.50;14.00;;;;;15.41;68.57;99474.84;5076614;28;45469;-71
2023/04/22 03:19:17;;;;;;;;;14.75;13.25;;;;;15.51;68.53;99501.97;5076546;28;45543;-74
2023/04/22 03:21:43;;;;;;;;;15.00;14.75;;;;;15.48;68.10;99505.50;5076869;28;45303;-75
2023/04/22 03:24:08;;;;;;;;;14.25;13.75;;;;;15.51;68.14;99528.28;5076631;28;45757;-72
2023/04/22 03:26:34;;;;;;;;;15.00;14.75;;;;;15.50;68.20;99534.44;5077160;28;45429;-73
2023/04/22 03:29:00;;;;;;;;;15.25;14.50;;;;;15.49;68.15;99536.19;5076969;28;45457;-76
2023/04/22 03:31:25;;;;;;;;;12.25;11.75;;;;;15.49;68.30;99512.50;5076232;28;45352;-76
2023/04/22 03:33:51;;;;;;;;;18.25;15.75;;;;;15.37;68.36;99515.22;5076461;28;45482;-74
2023/04/22 03:36:16;;;;;;;;;13.00;12.00;;;;;15.47;68.52;99544.97;5076509;28;45259;-75
2023/04/22 03:38:42;;;;;;;;;17.75;14.25;;;;;15.41;68.98;99529.22;5075884;28;45314;-76
2023/04/22 03:41:08;;;;;;;;;13.75;13.25;;;;;15.41;69.12;99526.59;5076665;28;45429;-76
2023/04/22 03:43:33;;;;;;;;;18.75;18.00;;;;;15.41;69.55;99526.59;5087350;28;45929;-75
2023/04/22 03:45:59;;;;;;;;;15.00;14.00;;;;;15.43;69.77;99527.47;5094320;28;45192;-73
2023/04/22 03:48:25;;;;;;;;;13.00;12.75;;;;;15.43;69.86;99522.19;5093966;28;45824;-74
2023/04/22 03:50:50;;;;;;;;;15.50;14.75;;;;;15.35;69.51;99521.38;5069039;28;44890;-75
2023/04/22 03:53:16;;;;;;;;;14.75;14.00;;;;;15.31;69.80;99534.53;5085953;28;45941;-72
2023/04/22 03:55:41;;;;;;;;;16.25;15.00;;;;;15.38;70.06;99566.06;5086731;28;45377;-70
2023/04/22 03:58:07;;;;;;;;;16.25;13.00;;;;;15.28;70.14;99563.53;5079050;28;45410;-71
2023/04/22 04:00:32;;;;;;;;;15.00;12.75;;;;;15.28;71.01;99584.56;5064900;28;45792;-73
2023/04/22 04:02:58;;;;;;;;;13.00;13.00;;;;;15.27;70.84;99595.97;5079485;28;46098;-70
2023/04/22 04:05:24;;;;;;;;;13.25;10.50;;;;;15.10;71.46;99555.72;5079943;28;45703;-75
2023/04/22 04:07:49;;;;;;;;;14.00;13.00;;;;;15.16;71.65;99557.41;5079936;28;45419;-75
2023/04/22 04:10:15;;;;;;;;;13.25;13.00;;;;;15.16;71.20;99545.16;5079741;28;45294;-74
2023/04/22 04:12:41;;;;;;;;;16.00;13.25;;;;;14.97;72.05;99539.09;5045504;28;45442;-75
2023/04/22 04:15:07;;;;;;;;;13.75;13.00;;;;;14.80;72.43;99535.66;5079524;28;45574;-75
2023/04/22 04:17:32;;;;;;;;;14.50;12.00;;;;;14.79;72.11;99534.78;5079840;28;45367;-75
2023/04/22 04:19:57;;;;;;;;;14.75;13.75;;;;;14.86;72.25;99541.78;5079953;28;45496;-71
2023/04/22 04:22:23;;;;;;;;;12.50;11.50;;;;;14.90;72.72;99543.53;5078260;28;45571;-70
2023/04/22 04:24:49;;;;;;;;;14.50;13.25;;;;;14.84;72.66;99526.88;5079596;28;45230;-70
2023/04/22 04:27:14;;;;;;;;;14.50;12.75;;;;;14.84;72.04;99538.28;5079594;28;45336;-70
2023/04/22 04:29:40;;;;;;;;;13.50;12.25;;;;;14.77;72.13;99538.31;5079763;28;45483;-71
2023/04/22 04:32:09;;;;;;;;;14.00;13.00;;;;;14.74;73.26;99535.66;5078839;28;45239;-71
2023/04/22 04:34:35;;;;;;;;;12.00;11.00;;;;;14.75;72.07;99527.78;5059995;28;45540;-76
2023/04/22 04:37:01;;;;;;;;;12.00;10.50;;;;;14.68;72.28;99499.75;5067394;28;45492;-76
2023/04/22 04:39:27;;;;;;;;;12.25;12.25;;;;;14.70;72.33;99519.94;5074162;28;45302;-75
2023/04/22 04:41:54;;;;;;;;;14.50;10.25;;;;;14.64;72.34;99530.47;5063363;28;45514;-75
2023/04/22 04:44:20;;;;;;;;;16.50;12.75;;;;;14.56;72.31;99526.06;5078928;27;45419;-76
2023/04/22 04:46:47;;;;;;;;;10.00;9.25;;;;;14.65;72.19;99549.72;5079264;28;45152;-75
2023/04/22 04:49:12;;;;;;;;;11.75;10.75;;;;;14.60;73.29;99549.72;5079176;28;45275;-71
2023/04/22 04:51:38;;;;;;;;;11.50;11.00;;;;;14.64;73.67;99542.72;5073875;28;45523;-76
2023/04/22 04:54:04;;;;;;;;;15.00;13.00;;;;;14.69;74.10;99538.31;5078977;28;45559;-74
2023/04/22 04:56:30;;;;;;;;;12.25;12.00;;;;;14.62;74.46;99537.47;5079027;28;45386;-75
2023/04/22 04:58:56;;;;;;;;;13.75;12.50;;;;;14.60;73.59;99544.47;5078848;28;45158;-71
2023/04/22 05:01:21;;;;;;;;;12.75;12.50;;;;;14.57;73.66;99539.22;5077987;28;45522;-75
2023/04/22 05:03:47;;;;;;;;;15.75;12.25;;;;;14.47;74.35;99534.84;5078179;28;45473;-71
2023/04/22 05:06:13;;;;;;;;;11.50;11.00;;;;;14.48;73.53;99524.34;5079264;28;45369;-74
2023/04/22 05:08:38;;;;;;;;;12.75;10.50;;;;;14.33;74.67;99527.84;5078656;28;45458;-71
2023/04/22 05:11:04;;;;;;;;;11.75;10.25;;;;;14.28;74.65;99536.63;5062451;28;45483;-74
2023/04/22 05:13:29;;;;;;;;;12.00;11.25;;;;;14.35;74.05;99556.75;5078387;28;45357;-76
2023/04/22 05:15:55;;;;;;;;;10.50;9.00;;;;;14.30;74.68;99554.16;5078832;28;45386;-75
2023/04/22 05:18:21;;;;;;;;;9.75;9.50;;;;;14.38;74.68;99562.00;5078646;28;45231;-71
2023/04/22 05:20:46;;;;;;;;;12.25;11.00;;;;;14.45;75.33;99565.50;5058565;28;45502;-75
2023/04/22 05:23:12;;;;;;;;;12.50;11.00;;;;;14.51;75.15;99561.09;5074339;28;45497;-70
2023/04/22 05:25:38;;;;;;;;;13.00;11.50;;;;;14.45;75.20;99544.47;5076588;28;45454;-72
2023/04/22 05:28:03;;;;;;;;;14.25;12.00;;;;;14.47;75.09;99555.88;5077785;28;45422;-69
2023/04/22 05:30:29;;;;;;;;;12.25;11.25;;;;;14.50;74.93;99575.13;5077233;28;45280;-73
2023/04/22 05:32:54;;;;;;;;;10.00;9.75;;;;;14.53;75.14;99571.63;5076829;28;46343;-74
2023/04/22 05:35:20;;;;;;;;;13.50;12.00;;;;;14.52;74.85;99573.38;5076803;27;45510;-75
2023/04/22 05:37:45;;;;;;;;;12.25;11.75;;;;;14.39;76.09;99581.28;5053487;28;45358;-70
2023/04/22 05:40:11;;;;;;;;;12.75;11.00;;;;;14.39;75.71;99595.28;5067935;28;45575;-70
2023/04/22 05:42:36;;;;;;;;;11.00;10.25;;;;;14.47;75.13;99604.03;5077906;27;45429;-74
2023/04/22 05:45:02;;;;;;;;;15.00;14.00;;;;;14.52;74.91;99602.28;5077327;28;45579;-70
2023/04/22 05:47:29;;;;;;;;;11.25;11.00;;;;;14.40;74.92;99577.75;5077722;28;45643;-71
2023/04/22 05:49:55;;;;;;;;;9.50;9.25;;;;;14.41;74.57;99587.41;5077288;28;46057;-70
2023/04/22 05:52:20;;;;;;;;;9.75;8.75;;;;;14.35;73.94;99580.41;5077757;28;45434;-71
2023/04/22 05:54:46;;;;;;;;;12.50;12.00;;;;;14.24;75.25;99587.41;5077506;28;45346;-75
2023/04/22 05:57:11;;;;;;;;;12.00;11.00;;;;;14.17;76.10;99575.16;5077627;28;45382;-73
2023/04/22 05:59:37;;;;;;;;;12.00;11.75;;;;;14.23;76.12;99577.78;5077700;28;45504;-74
2023/04/22 06:02:02;;;;;;;;;16.00;15.50;;;;;14.24;76.56;99571.66;5075929;28;45393;-75
2023/04/22 06:04:28;;;;;;;;;12.00;11.25;;;;;14.16;76.18;99576.03;5077160;28;45563;-72
2023/04/22 06:06:55;;;;;;;;;11.25;11.00;;;;;14.16;75.86;99579.53;5077568;28;45491;-72
2023/04/22 06:09:21;;;;;;;;;9.75;9.00;;;;;14.24;75.87;99590.03;5077471;28;46364;-74
2023/04/22 06:11:46;;;;;;;;;8.75;8.50;;;;;14.22;75.94;99591.78;5077045;28;45694;-74
2023/04/22 06:14:12;;;;;;;;;11.50;9.50;;;;;14.35;76.33;99617.19;5043275;28;45402;-75
2023/04/22 06:16:38;;;;;;;;;14.00;13.00;;;;;14.39;76.21;99618.06;5075882;28;45616;-74
2023/04/22 06:19:04;;;;;;;;;12.00;10.25;;;;;14.49;76.23;99630.31;5077744;28;45387;-74
2023/04/22 06:21:31;;;;;;;;;20.50;13.75;;;;;14.49;76.13;99625.94;5077308;28;45417;-73
2023/04/22 06:23:57;;;;;;;;;17.00;16.25;;;;;14.43;76.85;99641.69;5077141;28;45488;-75
2023/04/22 06:26:22;;;;;;;;;14.25;12.00;;;;;14.48;76.26;99633.81;5077748;28;45361;-75
2023/04/22 06:28:48;;;;;;;;;12.25;11.50;;;;;14.48;76.53;99639.97;5076960;28;46117;-74
2023/04/22 06:31:14;;;;;;;;;9.00;8.50;;;;;14.52;76.58;99641.72;5076184;27;45407;-75
2023/04/22 06:33:39;;;;;;;;;9.25;8.25;;;;;14.60;75.96;99654.84;5076469;28;45323;-75
2023/04/22 06:36:05;;;;;;;;;10.50;9.00;;;;;14.62;76.63;99666.28;5076631;28;45397;-73
2023/04/22 06:38:31;;;;;;;;;7.25;5.75;;;;;14.55;75.18;99645.22;5076889;28;45850;-75
2023/04/22 06:40:56;;;;;;;;;7.00;6.25;;;;;14.56;75.40;99671.50;5076583;27;45532;-74
2023/04/22 06:43:21;;;;;;;;;7.25;7.25;;;;;14.58;75.71;99684.66;5075957;28;45469;-75
2023/04/22 06:45:47;;;;;;;;;7.75;7.75;;;;;14.61;75.96;99692.56;5077793;28;45339;-74
2023/04/22 06:48:12;;;;;;;;;8.25;8.00;;;;;14.68;76.69;99697.81;5072196;28;45368;-73
2023/04/22 06:50:38;;;;;;;;;10.00;8.75;;;;;14.71;76.24;99699.56;5066890;28;45438;-71
2023/04/22 06:53:04;;;;;;;;;9.50;8.25;;;;;14.70;75.75;99697.78;5053376;28;45479;-70
2023/04/22 06:55:29;;;;;;;;;8.00;6.00;;;;;14.65;75.77;99678.53;5059030;28;45440;-69
2023/04/22 06:57:55;;;;;;;;;7.50;7.25;;;;;14.73;74.23;99696.94;5062943;28;46072;-71
2023/04/22 07:00:21;;;;;;;;;8.25;7.00;;;;;14.70;74.54;99700.41;5076584;28;45502;-71
2023/04/22 07:02:46;;;;;;;;;5.50;5.50;;;;;14.80;74.76;99710.06;5076157;28;45593;-71
2023/04/22 07:05:12;;;;;;;;;4.50;4.25;;;;;14.79;73.33;99710.06;5076121;28;45418;-74
2023/04/22 07:07:37;;;;;;;;;4.25;4.25;;;;;14.77;73.18;99707.44;5066307;28;45413;-74
2023/04/22 07:10:03;;;;;;;;;5.00;3.50;;;;;14.82;73.39;99708.31;5072886;28;45410;-72
2023/04/22 07:12:29;;;;;;;;;5.25;4.75;;;;;14.82;72.97;99710.06;5074543;28;45315;-75
2023/04/22 07:14:55;;;;;;;;;3.50;3.25;;;;;14.89;73.52;99711.81;5064562;28;45508;-75
2023/04/22 07:17:21;;;;;;;;;6.00;6.00;;;;;14.94;73.43;99696.91;5076325;28;45588;-76
2023/04/22 07:19:47;;;;;;;;;5.00;4.50;;;;;15.04;72.52;99703.91;5076009;28;45603;-71
2023/04/22 07:22:13;;;;;;;;;4.25;4.00;;;;;14.97;72.14;99686.38;5074930;28;45308;-74
2023/04/22 07:24:39;;;;;;;;;5.75;4.00;;;;;15.00;72.77;99690.75;5075882;28;47107;-74
2023/04/22 07:27:05;;;;;;;;;3.00;3.00;;;;;15.00;72.75;99690.75;5075441;28;45488;-72
2023/04/22 07:29:31;;;;;;;;;5.00;4.00;;;;;14.96;73.69;99691.63;5075379;28;45505;-70
2023/04/22 07:31:56;;;;;;;;;3.50;3.00;;;;;15.06;72.86;99696.00;5075287;28;45496;-73
2023/04/22 07:34:22;;;;;;;;;3.00;3.00;;;;;15.06;72.31;99701.25;5076067;28;46246;-71
2023/04/22 07:36:50;;;;;;;;;5.00;4.50;;;;;15.08;72.73;99715.28;5074827;28;45461;-72
2023/04/22 07:39:15;;;;;;;;;7.50;6.25;;;;;15.06;72.47;99728.44;5075130;28;45442;-70
2023/04/22 07:41:41;;;;;;;;;4.75;4.75;;;;;15.11;72.17;99731.06;5075931;28;45508;-74
2023/04/22 07:44:06;;;;;;;;;4.50;4.00;;;;;15.18;73.36;99738.09;5076519;28;45674;-78
2023/04/22 07:46:32;;;;;;;;;3.00;3.00;;;;;15.22;73.53;99755.63;5057283;28;46070;-72
2023/04/22 07:48:57;;;;;;;;;5.25;5.00;;;;;15.27;73.10;99745.94;5074967;28;45371;-72
2023/04/22 07:51:24;;;;;;;;;4.00;4.00;;;;;15.33;72.84;99750.31;5061903;27;45518;-71
2023/04/22 07:53:50;;;;;;;;;3.75;3.75;;;;;15.34;72.88;99752.09;5075889;28;45771;-72
2023/04/22 07:56:15;;;;;;;;;5.00;5.00;;;;;15.35;72.82;99751.19;5074866;28;46085;-71
2023/04/22 07:58:41;;;;;;;;;4.00;4.00;;;;;15.35;71.72;99745.91;5073987;28;45392;-70
2023/04/22 08:01:06;;;;;;;;;4.75;3.75;;;;;15.34;72.31;99753.81;5073779;28;45465;-71
2023/04/22 08:03:32;;;;;;;;;3.00;3.00;;;;;15.33;72.60;99737.16;5055548;28;45504;-71
2023/04/22 08:05:57;;;;;;;;;3.25;3.25;;;;;15.45;73.10;99754.69;5066228;28;45465;-72
2023/04/22 08:08:23;;;;;;;;;3.00;3.00;;;;;15.53;71.88;99758.16;5067636;28;45561;-72
2023/04/22 08:10:49;;;;;;;;;3.00;3.00;;;;;15.56;70.91;99758.16;5073862;28;45481;-74
2023/04/22 08:13:14;;;;;;;;;4.33;3.33;;;;;15.59;70.59;99765.16;5074510;28;45418;-74
2023/04/22 08:15:40;;;;;;;;;6.00;5.00;;;;;15.50;71.13;99780.09;5075659;28;45926;-74
2023/04/22 08:18:06;;;;;;;;;4.00;4.00;;;;;15.50;71.88;99784.50;5075123;28;45493;-73
2023/04/22 08:20:31;;;;;;;;;5.00;5.00;;;;;15.43;72.25;99786.25;5075949;28;45498;-72
2023/04/22 08:22:59;;;;;;;;;4.00;4.00;;;;;15.53;71.92;99781.84;5076071;28;45398;-72
2023/04/22 08:25:25;;;;;;;;;3.00;3.00;;;;;15.58;71.44;99777.47;5075446;28;46230;-71
2023/04/22 08:27:51;;;;;;;;;3.00;3.00;;;;;15.60;70.76;99757.28;5075803;28;45576;-73
2023/04/22 08:30:17;;;;;;;;;3.33;3.33;;;;;15.66;70.70;99764.28;5074713;28;45779;-71
2023/04/22 08:32:43;;;;;;;;;4.00;4.00;;;;;15.58;71.32;99774.84;5076032;28;45394;-72
2023/04/22 08:35:08;;;;;;;;;4.00;4.00;;;;;15.59;71.36;99783.59;5074588;28;46355;-72
2023/04/22 08:37:34;;;;;;;;;2.33;2.33;;;;;15.59;70.74;99780.97;5074968;28;45533;-71
2023/04/22 08:40:00;;;;;;;;;3.00;3.00;;;;;15.57;71.17;99794.13;5078145;28;45493;-74
2023/04/22 08:42:26;;;;;;;;;11.25;8.25;;;;;15.45;72.17;99789.75;5079378;28;45523;-71
2023/04/22 08:44:53;;;;;;;;;4.00;4.00;;;;;15.51;72.47;99799.41;5045044;28;45370;-72
2023/04/22 08:47:20;;;;;;;;;4.00;4.00;;;;;15.54;72.18;99795.88;5077834;28;46462;-72
2023/04/22 08:49:46;;;;;;;;;5.00;3.33;;;;;15.55;72.66;99798.53;5078116;28;45666;-74
2023/04/22 08:52:14;;;;;;;;;3.00;3.00;;;;;15.57;72.91;99785.34;5058755;28;45663;-74
2023/04/22 08:54:42;;;;;;;;;4.00;3.00;;;;;15.60;72.50;99785.38;5077419;28;46289;-73
2023/04/22 08:57:09;;;;;;;;;5.00;4.00;;;;;15.54;72.27;99778.34;5076762;28;45412;-74
2023/04/22 08:59:37;;;;;;;;;4.00;3.00;;;;;15.60;72.16;99788.88;5078214;28;45488;-72
2023/04/22 09:02:05;;;;;;;;;5.00;3.00;;;;;15.57;72.78;99786.22;5078668;28;45281;-77
2023/04/22 09:04:31;;;;;;;;;5.67;4.00;;;;;15.64;72.87;99802.91;5064225;28;45548;-75
2023/04/22 09:06:58;;;;;;;;;5.75;5.75;;;;;15.63;73.02;99809.91;5078488;28;46035;-72
2023/04/22 09:09:24;;;;;;;;;2.67;2.67;;;;;15.60;73.25;99798.53;5076576;28;45503;-73
2023/04/22 09:11:49;;;;;;;;;3.33;3.33;;;;;15.66;72.60;99801.16;5078195;28;45504;-74
2023/04/22 09:14:16;;;;;;;;;3.33;3.00;;;;;15.61;72.53;99787.97;5077812;28;45442;-73
2023/04/22 09:16:46;;;;;;;;;4.33;4.33;;;;;15.70;71.95;99800.25;5058165;28;45481;-74
2023/04/22 09:19:13;;;;;;;;;2.33;2.33;;;;;15.81;72.11;99813.41;5058755;28;45458;-73
2023/04/22 09:21:40;;;;;;;;;2.00;2.00;;;;;15.88;72.15;99810.75;5077566;28;45521;-72
2023/04/22 09:24:10;;;;;;;;;4.00;4.00;;;;;15.96;71.87;99809.84;5077034;28;45547;-73
2023/04/22 09:26:40;;;;;;;;;5.25;5.00;;;;;16.02;71.05;99808.06;5077567;28;45377;-73
2023/04/22 09:29:08;;;;;;;;;6.00;5.50;;;;;16.04;71.19;99822.09;5075463;28;45497;-73
2023/04/22 09:31:34;;;;;;;;;6.67;6.67;;;;;16.05;71.37;99830.88;5075273;28;45166;-73
2023/04/22 09:34:00;;;;;;;;;28.00;23.75;;;;;15.99;71.91;99820.38;5074122;28;45843;-72
2023/04/22 09:36:30;;;;;;;;;6.00;5.67;;;;;15.97;71.10;99824.75;5076624;28;46074;-74
2023/04/22 09:38:58;;;;;;;;;7.00;5.67;;;;;16.02;71.62;99834.41;5076977;28;45624;-72
2023/04/22 09:41:31;;;;;;;;;6.67;6.67;;;;;16.09;71.69;99835.25;5077523;28;45469;-73
2023/04/22 09:43:58;;;;;;;;;7.00;6.67;;;;;16.19;71.54;99830.81;5077187;28;45413;-73
2023/04/22 09:46:26;;;;;;;;;6.00;6.00;;;;;16.28;71.13;99823.75;5077122;28;46498;-73
2023/04/22 09:48:54;;;;;;;;;2.67;2.67;;;;;16.36;70.45;99805.25;5077289;28;45528;-70
2023/04/22 09:51:20;;;;;;;;;4.00;3.33;;;;;16.64;70.03;99815.66;5075875;28;45341;-72
2023/04/22 09:54:00;;;;;;;;;4.33;4.33;;;;;16.76;69.84;99818.19;5077442;28;45536;-72
2023/04/22 09:56:47;;;;;;;;;3.33;3.00;;;;;16.90;69.00;99828.69;5059570;28;45448;-73
2023/04/22 09:59:14;;;;;;;;;4.00;3.00;;;;;16.87;67.34;99829.59;5075604;28;45576;-73
2023/04/22 10:01:41;;;;;;;;;3.00;3.00;;;;;16.80;68.52;99837.53;5064189;28;45443;-73
2023/04/22 10:04:08;;;;;;;;;3.00;3.00;;;;;16.74;68.77;99830.53;5074510;28;45496;-72
2023/04/22 10:06:35;;;;;;;;;4.00;2.67;;;;;16.85;68.69;99855.09;5059461;28;45385;-72
2023/04/22 10:09:01;;;;;;;;;3.00;3.00;;;;;16.85;67.93;99860.38;5051371;28;45474;-71
2023/04/22 10:27:28;;;;;;;;;2.00;2.00;;;;;16.55;68.23;99890.38;5037705;28;45988;-77
2023/04/22 10:33:33;;;;;;;;;2.00;2.00;;;;;16.62;67.83;99878.06;5051833;28;45540;-75
2023/04/22 10:36:09;;;;;;;;;4.00;4.00;;;;;16.54;68.55;99846.47;5053722;28;45622;-75
2023/04/22 10:38:39;;;;;;;;;1.67;1.33;;;;;16.97;67.51;99884.91;5055985;28;45583;-74
2023/04/22 10:41:05;;;;;;;;;2.00;2.00;;;;;17.09;66.91;99874.28;5056413;28;45323;-75
2023/04/22 10:43:40;;;;;;;;;3.00;3.00;;;;;17.23;65.98;99880.34;5056444;28;45492;-75
2023/04/22 10:46:06;;;;;;;;;3.00;3.00;;;;;17.24;66.13;99874.16;5037105;28;45920;-75
2023/04/22 10:48:50;;;;;;;;;3.00;3.00;;;;;17.47;65.13;99894.22;5056230;28;46214;-75
2023/04/22 10:54:37;;;;;;;;;6.00;6.00;;;;;17.67;64.77;99892.28;5051587;28;45477;-76
2023/04/22 11:13:53;;;;;;;;;15.00;14.50;;;;;17.94;63.60;99907.91;5053510;28;45876;-74
2023/04/22 11:16:21;;;;;;;;;9.67;7.00;;;;;18.02;62.63;99906.91;5038176;28;45399;-75
2023/04/22 11:18:47;;;;;;;;;10.00;9.67;;;;;18.09;62.94;99908.59;5056819;28;45508;-76
2023/04/22 11:21:13;;;;;;;;;7.00;6.67;;;;;18.13;62.50;99904.16;5056036;28;45529;-75
2023/04/22 11:23:50;;;;;;;;;6.00;6.00;;;;;18.20;62.08;99913.75;5056330;28;46415;-75
2023/04/22 11:26:16;;;;;;;;;12.00;11.33;;;;;17.98;61.23;99832.97;5055250;28;45499;-74
2023/04/22 11:28:45;;;;;;;;;11.25;10.75;;;;;18.62;60.95;99910.63;5037167;28;45624;-75
2023/04/22 11:31:11;;;;;;;;;6.67;5.33;;;;;18.33;59.65;99837.84;5056219;28;45888;-75
2023/04/22 11:33:39;;;;;;;;;3.67;3.00;;;;;19.01;59.58;99909.22;5055548;28;45916;-76
2023/04/22 11:36:10;;;;;;;;;2.67;2.67;;;;;19.24;59.45;99910.66;5056198;28;45354;-76
2023/04/22 11:38:35;;;;;;;;;2.00;2.00;;;;;19.37;58.51;99912.19;5056009;28;45159;-75
2023/04/22 11:41:01;;;;;;;;;1.00;1.00;;;;;19.54;57.35;99914.56;5055670;28;45585;-75
2023/04/22 11:43:26;;;;;;;;;1.00;1.00;;;;;19.52;58.10;99908.44;5055893;28;45322;-76
2023/04/22 11:45:54;;;;;;;;;0.33;0.00;;;;;19.90;57.74;99904.25;5055911;28;45330;-75
2023/04/22 11:48:20;;;;;;;;;1.00;1.00;;;;;20.07;55.72;99893.31;5056133;28;45396;-75
2023/04/22 11:50:46;;;;;;;;;1.00;0.00;;;;;20.50;56.01;99911.03;5055732;28;45378;-76
2023/04/22 11:53:17;;;;;;;;;1.00;1.00;;;;;20.73;54.07;99929.16;5055722;28;46500;-75
2023/04/22 11:55:45;;;;;;;;;0.00;0.00;;;;;20.70;52.35;99929.22;5053844;28;45466;-75
2023/04/22 11:58:16;;;;;;;;;0.00;0.00;;;;;20.50;55.49;99918.13;5054676;28;45529;-75
2023/04/22 12:00:44;;;;;;;;;2.33;2.33;;;;;20.81;54.56;99913.03;5055605;28;45300;-75